Terminal Aerodrome Forecast
Issued by NWS Memphis, TN

Home | Current Version | Previous Version | Text Only | Print | Product List | Glossary On
Versions: 1 2 3 4 5 6 7 8 9 10 11 12 13
000
FTUS44 KMEG 310500
TAFJBR
TAF
KJBR 310521Z 3106/0106 26003KT P6SM VCSH BKN050 OVC100
     FM310900 VRB02KT 5SM BR SCT040 OVC090
     FM311200 15005KT P6SM -RA BKN040 OVC090
     FM311800 18008KT P6SM OVC060=

USA.gov is the U.S. government's official web portal to all federal, state and local government web resources and services.